sensor_id;sensor_type;location;lat;lon;timestamp;temperature;humidity
24860;DHT22;12936;52.006;4.350;2023-10-09T00:00:25;18.30;99.90
24860;DHT22;12936;52.006;4.350;2023-10-09T00:03:20;18.30;99.90
24860;DHT22;12936;52.006;4.350;2023-10-09T00:05:50;18.30;99.90
24860;DHT22;12936;52.006;4.350;2023-10-09T00:08:20;18.30;99.90
24860;DHT22;12936;52.006;4.350;2023-10-09T00:10:53;18.30;99.90
24860;DHT22;12936;52.006;4.350;2023-10-09T00:13:23;18.30;99.90
24860;DHT22;12936;52.006;4.350;2023-10-09T00:15:58;18.40;99.90
24860;DHT22;12936;52.006;4.350;2023-10-09T00:18:37;18.40;99.90
24860;DHT22;12936;52.006;4.350;2023-10-09T00:21:05;18.30;99.90
24860;DHT22;12936;52.006;4.350;2023-10-09T00:23:39;18.40;99.90
24860;DHT22;12936;52.006;4.350;2023-10-09T00:26:08;18.40;99.90
24860;DHT22;12936;52.006;4.350;2023-10-09T00:28:39;18.40;99.90
24860;DHT22;12936;52.006;4.350;2023-10-09T00:31:11;18.40;99.90
24860;DHT22;12936;52.006;4.350;2023-10-09T00:33:45;18.40;99.90
24860;DHT22;12936;52.006;4.350;2023-10-09T00:36:13;18.40;99.90
24860;DHT22;12936;52.006;4.350;2023-10-09T00:38:54;18.40;99.90
24860;DHT22;12936;52.006;4.350;2023-10-09T00:41:24;18.40;99.90
24860;DHT22;12936;52.006;4.350;2023-10-09T00:43:55;18.50;99.90
24860;DHT22;12936;52.006;4.350;2023-10-09T00:46:27;18.50;99.90
24860;DHT22;12936;52.006;4.350;2023-10-09T00:48:57;18.40;99.90
24860;DHT22;12936;52.006;4.350;2023-10-09T00:51:29;18.50;99.90
24860;DHT22;12936;52.006;4.350;2023-10-09T00:54:05;18.50;99.90
24860;DHT22;12936;52.006;4.350;2023-10-09T00:56:42;18.50;99.90
24860;DHT22;12936;52.006;4.350;2023-10-09T00:59:19;18.50;99.90
24860;DHT22;12936;52.006;4.350;2023-10-09T01:01:48;18.50;99.90
24860;DHT22;12936;52.006;4.350;2023-10-09T01:04:26;18.60;99.90
24860;DHT22;12936;52.006;4.350;2023-10-09T01:06:56;18.60;99.90
24860;DHT22;12936;52.006;4.350;2023-10-09T01:09:36;18.60;99.90
24860;DHT22;12936;52.006;4.350;2023-10-09T01:12:06;18.70;99.90
24860;DHT22;12936;52.006;4.350;2023-10-09T01:14:43;18.70;99.90
24860;DHT22;12936;52.006;4.350;2023-10-09T01:17:13;18.70;99.90
24860;DHT22;12936;52.006;4.350;2023-10-09T01:19:58;18.80;99.90
24860;DHT22;12936;52.006;4.350;2023-10-09T01:22:30;18.80;99.90
24860;DHT22;12936;52.006;4.350;2023-10-09T01:25:03;18.80;99.90
24860;DHT22;12936;52.006;4.350;2023-10-09T01:27:33;18.90;99.90
24860;DHT22;12936;52.006;4.350;2023-10-09T01:30:08;18.90;99.90
24860;DHT22;12936;52.006;4.350;2023-10-09T01:32:41;18.90;99.90
24860;DHT22;12936;52.006;4.350;2023-10-09T01:35:12;18.90;99.90
24860;DHT22;12936;52.006;4.350;2023-10-09T01:37:48;19.00;99.90
24860;DHT22;12936;52.006;4.350;2023-10-09T01:40:19;19.00;99.90
24860;DHT22;12936;52.006;4.350;2023-10-09T01:43:04;19.00;99.90
24860;DHT22;12936;52.006;4.350;2023-10-09T01:45:36;19.00;99.90
24860;DHT22;12936;52.006;4.350;2023-10-09T01:48:10;19.00;99.90
24860;DHT22;12936;52.006;4.350;2023-10-09T01:50:39;19.00;99.90
24860;DHT22;12936;52.006;4.350;2023-10-09T01:53:08;19.10;99.90
24860;DHT22;12936;52.006;4.350;2023-10-09T01:55:38;19.10;99.90
24860;DHT22;12936;52.006;4.350;2023-10-09T01:58:07;19.10;99.90
24860;DHT22;12936;52.006;4.350;2023-10-09T02:00:44;19.10;99.90
24860;DHT22;12936;52.006;4.350;2023-10-09T02:03:16;19.10;99.90
24860;DHT22;12936;52.006;4.350;2023-10-09T02:05:45;19.10;99.90
24860;DHT22;12936;52.006;4.350;2023-10-09T02:08:16;19.10;99.90
24860;DHT22;12936;52.006;4.350;2023-10-09T02:10:50;19.10;99.90
24860;DHT22;12936;52.006;4.350;2023-10-09T02:13:22;19.10;99.90
24860;DHT22;12936;52.006;4.350;2023-10-09T02:15:56;19.10;99.90
24860;DHT22;12936;52.006;4.350;2023-10-09T02:18:39;19.10;99.90
24860;DHT22;12936;52.006;4.350;2023-10-09T02:21:20;19.10;99.90
24860;DHT22;12936;52.006;4.350;2023-10-09T02:24:02;19.10;99.90
24860;DHT22;12936;52.006;4.350;2023-10-09T02:26:36;19.00;99.90
24860;DHT22;12936;52.006;4.350;2023-10-09T02:29:25;19.00;99.90
24860;DHT22;12936;52.006;4.350;2023-10-09T02:32:15;19.00;99.90
24860;DHT22;12936;52.006;4.350;2023-10-09T02:34:52;19.00;99.90
24860;DHT22;12936;52.006;4.350;2023-10-09T02:37:21;19.00;99.90
24860;DHT22;12936;52.006;4.350;2023-10-09T02:39:52;19.00;99.90
24860;DHT22;12936;52.006;4.350;2023-10-09T02:42:21;19.00;99.90
24860;DHT22;12936;52.006;4.350;2023-10-09T02:44:55;19.00;99.90
24860;DHT22;12936;52.006;4.350;2023-10-09T02:47:26;19.00;99.90
24860;DHT22;12936;52.006;4.350;2023-10-09T02:49:58;18.90;99.90
24860;DHT22;12936;52.006;4.350;2023-10-09T02:52:36;19.00;99.90
24860;DHT22;12936;52.006;4.350;2023-10-09T02:55:09;19.00;99.90
24860;DHT22;12936;52.006;4.350;2023-10-09T02:57:51;18.90;99.90
24860;DHT22;12936;52.006;4.350;2023-10-09T03:00:31;18.90;99.90
24860;DHT22;12936;52.006;4.350;2023-10-09T03:03:04;18.90;99.90
24860;DHT22;12936;52.006;4.350;2023-10-09T03:05:34;18.90;99.90
24860;DHT22;12936;52.006;4.350;2023-10-09T03:08:09;18.90;99.90
24860;DHT22;12936;52.006;4.350;2023-10-09T03:10:38;18.90;99.90
24860;DHT22;12936;52.006;4.350;2023-10-09T03:13:09;18.90;99.90
24860;DHT22;12936;52.006;4.350;2023-10-09T03:15:38;18.90;99.90
24860;DHT22;12936;52.006;4.350;2023-10-09T03:18:07;18.90;99.90
24860;DHT22;12936;52.006;4.350;2023-10-09T03:20:36;18.90;99.90
24860;DHT22;12936;52.006;4.350;2023-10-09T03:23:04;18.90;99.90
24860;DHT22;12936;52.006;4.350;2023-10-09T03:25:34;18.90;99.90
24860;DHT22;12936;52.006;4.350;2023-10-09T03:28:05;18.90;99.90
24860;DHT22;12936;52.006;4.350;2023-10-09T03:30:35;18.90;99.90
24860;DHT22;12936;52.006;4.350;2023-10-09T03:33:04;18.90;99.90
24860;DHT22;12936;52.006;4.350;2023-10-09T03:35:34;18.90;99.90
24860;DHT22;12936;52.006;4.350;2023-10-09T03:38:03;18.90;99.90
24860;DHT22;12936;52.006;4.350;2023-10-09T03:40:41;18.90;99.90
24860;DHT22;12936;52.006;4.350;2023-10-09T03:43:09;18.90;99.90
24860;DHT22;12936;52.006;4.350;2023-10-09T03:45:40;18.90;99.90
24860;DHT22;12936;52.006;4.350;2023-10-09T03:48:16;18.90;99.90
24860;DHT22;12936;52.006;4.350;2023-10-09T03:50:49;18.90;99.90
24860;DHT22;12936;52.006;4.350;2023-10-09T03:53:35;18.90;99.90
24860;DHT22;12936;52.006;4.350;2023-10-09T03:56:07;19.00;99.90
24860;DHT22;12936;52.006;4.350;2023-10-09T03:58:39;19.00;99.90
24860;DHT22;12936;52.006;4.350;2023-10-09T04:01:12;19.00;99.90
24860;DHT22;12936;52.006;4.350;2023-10-09T04:03:49;18.90;99.90
24860;DHT22;12936;52.006;4.350;2023-10-09T04:06:22;18.90;99.90
24860;DHT22;12936;52.006;4.350;2023-10-09T04:09:10;19.00;99.90
24860;DHT22;12936;52.006;4.350;2023-10-09T04:11:56;19.00;99.90
24860;DHT22;12936;52.006;4.350;2023-10-09T04:14:48;19.00;99.90
24860;DHT22;12936;52.006;4.350;2023-10-09T04:17:23;19.00;99.90
24860;DHT22;12936;52.006;4.350;2023-10-09T04:20:01;19.10;99.90
24860;DHT22;12936;52.006;4.350;2023-10-09T04:22:47;19.10;99.90
24860;DHT22;12936;52.006;4.350;2023-10-09T04:25:19;19.10;99.90
24860;DHT22;12936;52.006;4.350;2023-10-09T04:27:52;19.10;99.90
24860;DHT22;12936;52.006;4.350;2023-10-09T04:30:27;19.10;99.90
24860;DHT22;12936;52.006;4.350;2023-10-09T04:32:56;19.10;99.90
24860;DHT22;12936;52.006;4.350;2023-10-09T04:35:31;19.10;99.90
24860;DHT22;12936;52.006;4.350;2023-10-09T04:38:00;19.20;99.90
24860;DHT22;12936;52.006;4.350;2023-10-09T04:40:32;19.10;99.90
24860;DHT22;12936;52.006;4.350;2023-10-09T04:43:18;19.20;99.90
24860;DHT22;12936;52.006;4.350;2023-10-09T04:45:48;19.20;99.90
24860;DHT22;12936;52.006;4.350;2023-10-09T04:48:36;19.20;99.90
24860;DHT22;12936;52.006;4.350;2023-10-09T04:51:15;19.20;99.90
24860;DHT22;12936;52.006;4.350;2023-10-09T04:54:01;19.20;99.90
24860;DHT22;12936;52.006;4.350;2023-10-09T04:56:40;19.20;99.90
24860;DHT22;12936;52.006;4.350;2023-10-09T04:59:19;19.20;99.90
24860;DHT22;12936;52.006;4.350;2023-10-09T05:01:51;19.20;99.90
24860;DHT22;12936;52.006;4.350;2023-10-09T05:04:27;19.10;99.90
24860;DHT22;12936;52.006;4.350;2023-10-09T05:07:07;19.20;99.90
24860;DHT22;12936;52.006;4.350;2023-10-09T05:10:13;19.10;99.90
24860;DHT22;12936;52.006;4.350;2023-10-09T05:12:43;19.10;99.90
24860;DHT22;12936;52.006;4.350;2023-10-09T05:15:23;19.20;99.90
24860;DHT22;12936;52.006;4.350;2023-10-09T05:17:54;19.20;99.90
24860;DHT22;12936;52.006;4.350;2023-10-09T05:20:25;19.20;99.90
24860;DHT22;12936;52.006;4.350;2023-10-09T05:23:10;19.20;99.90
24860;DHT22;12936;52.006;4.350;2023-10-09T05:25:52;19.20;99.90
24860;DHT22;12936;52.006;4.350;2023-10-09T05:28:25;19.20;99.90
24860;DHT22;12936;52.006;4.350;2023-10-09T05:30:58;19.20;99.90
24860;DHT22;12936;52.006;4.350;2023-10-09T05:33:36;19.30;99.90
24860;DHT22;12936;52.006;4.350;2023-10-09T05:36:06;19.30;99.90
24860;DHT22;12936;52.006;4.350;2023-10-09T05:38:58;19.30;99.90
24860;DHT22;12936;52.006;4.350;2023-10-09T05:41:26;19.30;99.90
24860;DHT22;12936;52.006;4.350;2023-10-09T05:44:14;19.30;99.90
24860;DHT22;12936;52.006;4.350;2023-10-09T05:47:00;19.30;99.90
24860;DHT22;12936;52.006;4.350;2023-10-09T05:49:57;19.30;99.90
24860;DHT22;12936;52.006;4.350;2023-10-09T05:52:46;19.30;99.90
24860;DHT22;12936;52.006;4.350;2023-10-09T05:55:34;19.30;99.90
24860;DHT22;12936;52.006;4.350;2023-10-09T05:58:31;19.30;99.90
24860;DHT22;12936;52.006;4.350;2023-10-09T06:01:17;19.30;99.90
24860;DHT22;12936;52.006;4.350;2023-10-09T06:04:02;19.30;99.90
24860;DHT22;12936;52.006;4.350;2023-10-09T06:06:42;19.30;99.90
24860;DHT22;12936;52.006;4.350;2023-10-09T06:09:15;19.30;99.90
24860;DHT22;12936;52.006;4.350;2023-10-09T06:12:01;19.30;99.90
24860;DHT22;12936;52.006;4.350;2023-10-09T06:14:46;19.30;99.90
24860;DHT22;12936;52.006;4.350;2023-10-09T06:17:25;19.30;99.90
24860;DHT22;12936;52.006;4.350;2023-10-09T06:19:58;19.30;99.90
24860;DHT22;12936;52.006;4.350;2023-10-09T06:22:47;19.30;99.90
24860;DHT22;12936;52.006;4.350;2023-10-09T06:25:25;19.30;99.90
24860;DHT22;12936;52.006;4.350;2023-10-09T06:28:00;19.30;99.90
24860;DHT22;12936;52.006;4.350;2023-10-09T06:30:28;19.30;99.90
24860;DHT22;12936;52.006;4.350;2023-10-09T06:33:01;19.30;99.90
24860;DHT22;12936;52.006;4.350;2023-10-09T06:35:56;19.30;99.90
24860;DHT22;12936;52.006;4.350;2023-10-09T06:38:35;19.30;99.90
24860;DHT22;12936;52.006;4.350;2023-10-09T06:41:20;19.30;99.90
24860;DHT22;12936;52.006;4.350;2023-10-09T06:44:04;19.30;99.90
24860;DHT22;12936;52.006;4.350;2023-10-09T06:46:33;19.30;99.90
24860;DHT22;12936;52.006;4.350;2023-10-09T06:49:21;19.30;99.90
24860;DHT22;12936;52.006;4.350;2023-10-09T06:52:03;19.30;99.90
24860;DHT22;12936;52.006;4.350;2023-10-09T06:54:42;19.30;99.90
24860;DHT22;12936;52.006;4.350;2023-10-09T06:57:19;19.30;99.90
24860;DHT22;12936;52.006;4.350;2023-10-09T07:00:11;19.30;99.90
24860;DHT22;12936;52.006;4.350;2023-10-09T07:02:57;19.30;99.90
24860;DHT22;12936;52.006;4.350;2023-10-09T07:05:32;19.30;99.90
24860;DHT22;12936;52.006;4.350;2023-10-09T07:08:15;19.30;99.90
24860;DHT22;12936;52.006;4.350;2023-10-09T07:11:00;19.30;99.90
24860;DHT22;12936;52.006;4.350;2023-10-09T07:13:49;19.30;99.90
24860;DHT22;12936;52.006;4.350;2023-10-09T07:16:21;19.40;99.90
24860;DHT22;12936;52.006;4.350;2023-10-09T07:18:56;19.40;99.90
24860;DHT22;12936;52.006;4.350;2023-10-09T07:21:36;19.40;99.90
24860;DHT22;12936;52.006;4.350;2023-10-09T07:24:06;19.40;99.90
24860;DHT22;12936;52.006;4.350;2023-10-09T07:26:44;19.40;99.90
24860;DHT22;12936;52.006;4.350;2023-10-09T07:29:21;19.40;99.90
24860;DHT22;12936;52.006;4.350;2023-10-09T07:31:54;19.40;99.90
24860;DHT22;12936;52.006;4.350;2023-10-09T07:34:39;19.40;99.90
24860;DHT22;12936;52.006;4.350;2023-10-09T07:37:27;19.40;99.90
24860;DHT22;12936;52.006;4.350;2023-10-09T07:39:57;19.40;99.90
24860;DHT22;12936;52.006;4.350;2023-10-09T07:42:26;19.40;99.90
24860;DHT22;12936;52.006;4.350;2023-10-09T07:45:02;19.40;99.90
24860;DHT22;12936;52.006;4.350;2023-10-09T07:47:40;19.40;99.90
24860;DHT22;12936;52.006;4.350;2023-10-09T07:50:25;19.50;99.90
24860;DHT22;12936;52.006;4.350;2023-10-09T07:52:57;19.50;99.90
24860;DHT22;12936;52.006;4.350;2023-10-09T07:55:42;19.50;99.90
24860;DHT22;12936;52.006;4.350;2023-10-09T07:58:21;19.50;99.90
24860;DHT22;12936;52.006;4.350;2023-10-09T08:00:56;19.50;99.90
24860;DHT22;12936;52.006;4.350;2023-10-09T08:03:41;19.50;99.90
24860;DHT22;12936;52.006;4.350;2023-10-09T08:06:16;19.60;99.90
24860;DHT22;12936;52.006;4.350;2023-10-09T08:09:02;19.60;99.90
24860;DHT22;12936;52.006;4.350;2023-10-09T08:12:09;19.60;99.90
24860;DHT22;12936;52.006;4.350;2023-10-09T08:14:57;19.70;99.90
24860;DHT22;12936;52.006;4.350;2023-10-09T08:17:50;19.70;99.90
24860;DHT22;12936;52.006;4.350;2023-10-09T08:20:21;19.70;99.90
24860;DHT22;12936;52.006;4.350;2023-10-09T08:22:52;19.70;99.90
24860;DHT22;12936;52.006;4.350;2023-10-09T08:25:23;19.80;99.90
24860;DHT22;12936;52.006;4.350;2023-10-09T08:27:55;19.80;99.90
24860;DHT22;12936;52.006;4.350;2023-10-09T08:30:25;19.80;99.90
24860;DHT22;12936;52.006;4.350;2023-10-09T08:32:57;19.80;99.90
24860;DHT22;12936;52.006;4.350;2023-10-09T08:35:37;19.90;99.90
24860;DHT22;12936;52.006;4.350;2023-10-09T08:38:16;19.90;99.90
24860;DHT22;12936;52.006;4.350;2023-10-09T08:40:51;19.90;99.90
24860;DHT22;12936;52.006;4.350;2023-10-09T08:43:25;20.00;99.90
24860;DHT22;12936;52.006;4.350;2023-10-09T08:45:58;20.00;99.90
24860;DHT22;12936;52.006;4.350;2023-10-09T08:48:31;20.00;99.90
24860;DHT22;12936;52.006;4.350;2023-10-09T08:51:06;20.00;99.90
24860;DHT22;12936;52.006;4.350;2023-10-09T08:53:35;20.00;99.90
24860;DHT22;12936;52.006;4.350;2023-10-09T08:56:10;20.00;99.90
24860;DHT22;12936;52.006;4.350;2023-10-09T08:58:38;20.00;99.90
24860;DHT22;12936;52.006;4.350;2023-10-09T09:01:07;20.10;99.90
24860;DHT22;12936;52.006;4.350;2023-10-09T09:03:41;20.10;99.90
24860;DHT22;12936;52.006;4.350;2023-10-09T09:06:10;20.10;99.90
24860;DHT22;12936;52.006;4.350;2023-10-09T09:08:43;20.10;99.90
24860;DHT22;12936;52.006;4.350;2023-10-09T09:11:13;20.10;99.90
24860;DHT22;12936;52.006;4.350;2023-10-09T09:13:44;20.10;99.90
24860;DHT22;12936;52.006;4.350;2023-10-09T09:16:20;20.10;99.90
24860;DHT22;12936;52.006;4.350;2023-10-09T09:18:54;20.20;99.90
24860;DHT22;12936;52.006;4.350;2023-10-09T09:21:28;20.20;99.90
24860;DHT22;12936;52.006;4.350;2023-10-09T09:23:58;20.20;99.90
24860;DHT22;12936;52.006;4.350;2023-10-09T09:26:35;20.20;99.90
24860;DHT22;12936;52.006;4.350;2023-10-09T09:29:05;20.20;99.90
24860;DHT22;12936;52.006;4.350;2023-10-09T09:31:34;20.20;99.90
24860;DHT22;12936;52.006;4.350;2023-10-09T09:34:08;20.30;99.90
24860;DHT22;12936;52.006;4.350;2023-10-09T09:36:50;20.20;99.90
24860;DHT22;12936;52.006;4.350;2023-10-09T09:39:22;20.30;99.90
24860;DHT22;12936;52.006;4.350;2023-10-09T09:42:08;20.30;99.90
24860;DHT22;12936;52.006;4.350;2023-10-09T09:44:42;20.20;99.90
24860;DHT22;12936;52.006;4.350;2023-10-09T09:47:13;20.20;99.90
24860;DHT22;12936;52.006;4.350;2023-10-09T09:49:52;20.30;99.90
24860;DHT22;12936;52.006;4.350;2023-10-09T09:52:28;20.30;99.90
24860;DHT22;12936;52.006;4.350;2023-10-09T09:55:07;20.30;99.90
24860;DHT22;12936;52.006;4.350;2023-10-09T09:57:41;20.30;99.90
24860;DHT22;12936;52.006;4.350;2023-10-09T10:00:13;20.30;99.90
24860;DHT22;12936;52.006;4.350;2023-10-09T10:03:01;20.30;99.90
24860;DHT22;12936;52.006;4.350;2023-10-09T10:05:34;20.30;99.90
24860;DHT22;12936;52.006;4.350;2023-10-09T10:08:03;20.30;99.90
24860;DHT22;12936;52.006;4.350;2023-10-09T10:10:35;20.30;99.90
24860;DHT22;12936;52.006;4.350;2023-10-09T10:13:06;20.30;99.90
24860;DHT22;12936;52.006;4.350;2023-10-09T10:16:04;20.30;99.90
24860;DHT22;12936;52.006;4.350;2023-10-09T10:18:55;20.30;99.90
24860;DHT22;12936;52.006;4.350;2023-10-09T10:21:41;20.30;99.90
24860;DHT22;12936;52.006;4.350;2023-10-09T10:24:43;20.30;99.90
24860;DHT22;12936;52.006;4.350;2023-10-09T10:27:21;20.30;99.90
24860;DHT22;12936;52.006;4.350;2023-10-09T10:30:27;20.30;99.90
24860;DHT22;12936;52.006;4.350;2023-10-09T10:33:01;20.40;99.90
24860;DHT22;12936;52.006;4.350;2023-10-09T10:35:39;20.30;99.90
24860;DHT22;12936;52.006;4.350;2023-10-09T10:38:32;20.40;99.90
24860;DHT22;12936;52.006;4.350;2023-10-09T10:41:13;20.40;99.90
24860;DHT22;12936;52.006;4.350;2023-10-09T10:43:45;20.40;99.90
24860;DHT22;12936;52.006;4.350;2023-10-09T10:46:22;20.40;99.90
24860;DHT22;12936;52.006;4.350;2023-10-09T10:49:07;20.50;99.90
24860;DHT22;12936;52.006;4.350;2023-10-09T10:51:48;20.50;99.90
24860;DHT22;12936;52.006;4.350;2023-10-09T10:54:29;20.50;99.90
24860;DHT22;12936;52.006;4.350;2023-10-09T10:57:36;20.60;99.90
24860;DHT22;12936;52.006;4.350;2023-10-09T11:00:21;20.60;99.90
24860;DHT22;12936;52.006;4.350;2023-10-09T11:03:06;20.60;99.90
24860;DHT22;12936;52.006;4.350;2023-10-09T11:06:00;20.60;99.90
24860;DHT22;12936;52.006;4.350;2023-10-09T11:08:43;20.60;99.90
24860;DHT22;12936;52.006;4.350;2023-10-09T11:11:23;20.60;99.90
24860;DHT22;12936;52.006;4.350;2023-10-09T11:14:08;20.60;99.90
24860;DHT22;12936;52.006;4.350;2023-10-09T11:16:41;20.60;99.90
24860;DHT22;12936;52.006;4.350;2023-10-09T11:19:11;20.60;99.90
24860;DHT22;12936;52.006;4.350;2023-10-09T11:21:56;20.60;99.90
24860;DHT22;12936;52.006;4.350;2023-10-09T11:24:54;20.70;99.90
24860;DHT22;12936;52.006;4.350;2023-10-09T11:27:40;20.60;99.90
24860;DHT22;12936;52.006;4.350;2023-10-09T11:30:17;20.70;99.90
24860;DHT22;12936;52.006;4.350;2023-10-09T11:33:05;20.70;99.90
24860;DHT22;12936;52.006;4.350;2023-10-09T11:35:34;20.70;99.90
24860;DHT22;12936;52.006;4.350;2023-10-09T11:38:03;20.70;99.90
24860;DHT22;12936;52.006;4.350;2023-10-09T11:40:49;20.70;99.90
24860;DHT22;12936;52.006;4.350;2023-10-09T11:43:50;20.70;99.90
24860;DHT22;12936;52.006;4.350;2023-10-09T11:46:22;20.80;99.90
24860;DHT22;12936;52.006;4.350;2023-10-09T11:49:15;20.80;99.90
24860;DHT22;12936;52.006;4.350;2023-10-09T11:52:08;20.80;99.90
24860;DHT22;12936;52.006;4.350;2023-10-09T11:54:54;20.80;99.90
24860;DHT22;12936;52.006;4.350;2023-10-09T11:57:25;20.80;99.90
24860;DHT22;12936;52.006;4.350;2023-10-09T11:59:58;20.80;99.90
24860;DHT22;12936;52.006;4.350;2023-10-09T12:02:27;20.80;99.90
24860;DHT22;12936;52.006;4.350;2023-10-09T12:04:55;20.80;99.90
24860;DHT22;12936;52.006;4.350;2023-10-09T12:07:24;20.80;99.90
24860;DHT22;12936;52.006;4.350;2023-10-09T12:09:54;20.90;99.90
24860;DHT22;12936;52.006;4.350;2023-10-09T12:12:25;20.90;99.90
24860;DHT22;12936;52.006;4.350;2023-10-09T12:14:54;20.90;99.90
24860;DHT22;12936;52.006;4.350;2023-10-09T12:17:22;20.90;99.90
24860;DHT22;12936;52.006;4.350;2023-10-09T12:19:53;20.90;99.90
24860;DHT22;12936;52.006;4.350;2023-10-09T12:22:23;20.90;99.90
24860;DHT22;12936;52.006;4.350;2023-10-09T12:24:54;21.00;99.90
24860;DHT22;12936;52.006;4.350;2023-10-09T12:27:25;21.00;99.90
24860;DHT22;12936;52.006;4.350;2023-10-09T12:29:56;20.90;99.90
24860;DHT22;12936;52.006;4.350;2023-10-09T12:32:25;20.90;99.90
24860;DHT22;12936;52.006;4.350;2023-10-09T12:34:53;20.90;99.90
24860;DHT22;12936;52.006;4.350;2023-10-09T12:37:23;20.90;99.90
24860;DHT22;12936;52.006;4.350;2023-10-09T12:39:51;20.90;99.90
24860;DHT22;12936;52.006;4.350;2023-10-09T12:42:22;20.90;99.90
24860;DHT22;12936;52.006;4.350;2023-10-09T12:44:52;20.90;99.90
24860;DHT22;12936;52.006;4.350;2023-10-09T12:47:24;20.90;99.90
24860;DHT22;12936;52.006;4.350;2023-10-09T12:49:53;20.90;99.90
24860;DHT22;12936;52.006;4.350;2023-10-09T12:52:23;20.90;99.90
24860;DHT22;12936;52.006;4.350;2023-10-09T12:54:56;21.00;99.90
24860;DHT22;12936;52.006;4.350;2023-10-09T12:57:25;20.90;99.90
24860;DHT22;12936;52.006;4.350;2023-10-09T12:59:54;20.90;99.90
24860;DHT22;12936;52.006;4.350;2023-10-09T13:02:22;21.00;99.90
24860;DHT22;12936;52.006;4.350;2023-10-09T13:04:57;20.90;99.90
24860;DHT22;12936;52.006;4.350;2023-10-09T13:07:27;20.90;99.90
24860;DHT22;12936;52.006;4.350;2023-10-09T13:09:55;21.00;99.90
24860;DHT22;12936;52.006;4.350;2023-10-09T13:12:36;20.90;99.90
24860;DHT22;12936;52.006;4.350;2023-10-09T13:15:10;21.00;99.90
24860;DHT22;12936;52.006;4.350;2023-10-09T13:17:39;20.90;99.90
24860;DHT22;12936;52.006;4.350;2023-10-09T13:20:08;21.00;99.90
24860;DHT22;12936;52.006;4.350;2023-10-09T13:22:42;21.00;99.90
24860;DHT22;12936;52.006;4.350;2023-10-09T13:25:11;21.00;99.90
24860;DHT22;12936;52.006;4.350;2023-10-09T13:28:00;21.00;99.90
24860;DHT22;12936;52.006;4.350;2023-10-09T13:30:32;21.00;99.90
24860;DHT22;12936;52.006;4.350;2023-10-09T13:33:07;21.00;99.90
24860;DHT22;12936;52.006;4.350;2023-10-09T13:35:36;21.10;99.90
24860;DHT22;12936;52.006;4.350;2023-10-09T13:38:11;21.10;99.90
24860;DHT22;12936;52.006;4.350;2023-10-09T13:40:42;21.10;99.90
24860;DHT22;12936;52.006;4.350;2023-10-09T13:43:10;21.10;99.90
24860;DHT22;12936;52.006;4.350;2023-10-09T13:45:45;21.10;99.90
24860;DHT22;12936;52.006;4.350;2023-10-09T13:48:17;21.10;99.90
24860;DHT22;12936;52.006;4.350;2023-10-09T13:50:48;21.10;99.90
24860;DHT22;12936;52.006;4.350;2023-10-09T13:53:16;21.10;99.90
24860;DHT22;12936;52.006;4.350;2023-10-09T13:55:44;21.10;99.90
24860;DHT22;12936;52.006;4.350;2023-10-09T13:58:14;21.20;99.90
24860;DHT22;12936;52.006;4.350;2023-10-09T14:00:49;21.20;99.90
24860;DHT22;12936;52.006;4.350;2023-10-09T14:03:20;21.20;99.90
24860;DHT22;12936;52.006;4.350;2023-10-09T14:05:51;21.20;99.90
24860;DHT22;12936;52.006;4.350;2023-10-09T14:08:24;21.20;99.90
24860;DHT22;12936;52.006;4.350;2023-10-09T14:10:53;21.20;99.90
24860;DHT22;12936;52.006;4.350;2023-10-09T14:13:21;21.20;99.90
24860;DHT22;12936;52.006;4.350;2023-10-09T14:15:57;21.20;99.90
24860;DHT22;12936;52.006;4.350;2023-10-09T14:18:29;21.20;99.90
24860;DHT22;12936;52.006;4.350;2023-10-09T14:21:00;21.20;99.90
24860;DHT22;12936;52.006;4.350;2023-10-09T14:23:31;21.20;99.90
24860;DHT22;12936;52.006;4.350;2023-10-09T14:26:01;21.20;99.90
24860;DHT22;12936;52.006;4.350;2023-10-09T14:28:29;21.10;99.90
24860;DHT22;12936;52.006;4.350;2023-10-09T14:30:59;21.10;99.90
24860;DHT22;12936;52.006;4.350;2023-10-09T14:33:31;21.10;99.90
24860;DHT22;12936;52.006;4.350;2023-10-09T14:36:04;21.10;99.90
24860;DHT22;12936;52.006;4.350;2023-10-09T14:38:33;21.10;99.90
24860;DHT22;12936;52.006;4.350;2023-10-09T14:41:06;21.10;99.90
24860;DHT22;12936;52.006;4.350;2023-10-09T14:43:39;21.00;99.90
24860;DHT22;12936;52.006;4.350;2023-10-09T14:46:13;21.00;99.90
24860;DHT22;12936;52.006;4.350;2023-10-09T14:48:41;21.00;99.90
24860;DHT22;12936;52.006;4.350;2023-10-09T14:51:13;21.00;99.90
24860;DHT22;12936;52.006;4.350;2023-10-09T14:53:41;21.00;99.90
24860;DHT22;12936;52.006;4.350;2023-10-09T14:56:11;21.00;99.90
24860;DHT22;12936;52.006;4.350;2023-10-09T14:58:43;21.00;99.90
24860;DHT22;12936;52.006;4.350;2023-10-09T15:01:15;21.00;99.90
24860;DHT22;12936;52.006;4.350;2023-10-09T15:03:46;21.00;99.90
24860;DHT22;12936;52.006;4.350;2023-10-09T15:06:16;21.00;99.90
24860;DHT22;12936;52.006;4.350;2023-10-09T15:08:45;21.00;99.90
24860;DHT22;12936;52.006;4.350;2023-10-09T15:11:13;21.00;99.90
24860;DHT22;12936;52.006;4.350;2023-10-09T15:13:42;21.10;99.90
24860;DHT22;12936;52.006;4.350;2023-10-09T15:16:10;21.00;99.90
24860;DHT22;12936;52.006;4.350;2023-10-09T15:18:40;21.00;99.90
24860;DHT22;12936;52.006;4.350;2023-10-09T15:21:08;21.00;99.90
24860;DHT22;12936;52.006;4.350;2023-10-09T15:23:36;21.00;99.90
24860;DHT22;12936;52.006;4.350;2023-10-09T15:26:04;21.00;99.90
24860;DHT22;12936;52.006;4.350;2023-10-09T15:28:36;21.00;99.90
24860;DHT22;12936;52.006;4.350;2023-10-09T15:31:10;21.00;99.90
24860;DHT22;12936;52.006;4.350;2023-10-09T15:33:41;21.00;99.90
24860;DHT22;12936;52.006;4.350;2023-10-09T15:36:11;21.00;99.90
24860;DHT22;12936;52.006;4.350;2023-10-09T15:38:39;21.00;99.90
24860;DHT22;12936;52.006;4.350;2023-10-09T15:41:07;21.00;99.90
24860;DHT22;12936;52.006;4.350;2023-10-09T15:43:36;21.00;99.90
24860;DHT22;12936;52.006;4.350;2023-10-09T15:46:11;21.00;99.90
24860;DHT22;12936;52.006;4.350;2023-10-09T15:48:43;20.90;99.90
24860;DHT22;12936;52.006;4.350;2023-10-09T15:51:14;20.90;99.90
24860;DHT22;12936;52.006;4.350;2023-10-09T15:53:43;20.90;99.90
24860;DHT22;12936;52.006;4.350;2023-10-09T15:56:11;20.90;99.90
24860;DHT22;12936;52.006;4.350;2023-10-09T15:58:40;20.90;99.90
24860;DHT22;12936;52.006;4.350;2023-10-09T16:01:11;20.80;99.90
24860;DHT22;12936;52.006;4.350;2023-10-09T16:03:47;20.80;99.90
24860;DHT22;12936;52.006;4.350;2023-10-09T16:06:16;20.80;99.90
24860;DHT22;12936;52.006;4.350;2023-10-09T16:08:45;20.80;99.90
24860;DHT22;12936;52.006;4.350;2023-10-09T16:11:16;20.80;99.90
24860;DHT22;12936;52.006;4.350;2023-10-09T16:13:44;20.80;99.90
24860;DHT22;12936;52.006;4.350;2023-10-09T16:16:13;20.80;99.90
24860;DHT22;12936;52.006;4.350;2023-10-09T16:18:41;20.80;99.90
24860;DHT22;12936;52.006;4.350;2023-10-09T16:21:11;20.80;99.90